Time;durP1;ratioP1;P1;durP2;ratioP2;P2;SDS_P1;SDS_P2;PMS_P1;PMS_P2;Temp;Humidity;BMP_temperature;BMP_pressure;BME280_temperature;BME280_humidity;BME280_pressure;Samples;Min_cycle;Max_cycle;Signal;HPM_P1;HPM_P2
2022/06/27 00:00:33;;;;;;;0.40;0.40;;;;;;;-148.56;100.00;61375.16;5007115;28;21598;-37
2022/06/27 00:02:59;;;;;;;0.75;0.45;;;;;;;-148.56;100.00;61375.16;5004609;28;20044;-36
2022/06/27 00:05:24;;;;;;;0.55;0.32;;;;;;;-148.56;100.00;61375.16;5007653;28;20040;-36
2022/06/27 00:07:49;;;;;;;0.32;0.32;;;;;;;-148.56;100.00;61375.16;5009246;28;20037;-37
2022/06/27 00:10:15;;;;;;;0.40;0.40;;;;;;;-148.56;100.00;61375.16;5010481;28;20025;-38
2022/06/27 00:12:40;;;;;;;0.35;0.35;;;;;;;-148.56;100.00;61375.16;5005887;28;20030;-33
2022/06/27 00:15:07;;;;;;;0.30;0.30;;;;;;;-148.56;100.00;61375.16;5006059;28;20057;-35
2022/06/27 00:17:33;;;;;;;0.40;0.40;;;;;;;-148.56;100.00;61375.16;5004277;28;20029;-35
2022/06/27 00:19:58;;;;;;;0.30;0.30;;;;;;;-148.56;100.00;61375.16;5007012;28;20033;-34
2022/06/27 00:22:24;;;;;;;0.45;0.45;;;;;;;-148.56;100.00;61375.16;5005004;28;20140;-33
2022/06/27 00:24:50;;;;;;;1.42;0.50;;;;;;;-148.56;100.00;61375.16;5005046;28;21940;-35
2022/06/27 00:27:15;;;;;;;0.32;0.32;;;;;;;-148.56;100.00;61375.16;5010353;28;20124;-31
2022/06/27 00:29:41;;;;;;;0.30;0.30;;;;;;;-148.56;100.00;61375.16;5005839;28;20471;-36
2022/06/27 00:32:07;;;;;;;0.40;0.40;;;;;;;-148.56;100.00;61375.16;5000118;28;20947;-36
2022/06/27 00:34:33;;;;;;;0.45;0.40;;;;;;;-148.56;100.00;61375.16;5001886;28;20092;-35
2022/06/27 00:36:58;;;;;;;0.32;0.32;;;;;;;-148.56;100.00;61375.16;5008153;28;20030;-35
2022/06/27 00:39:23;;;;;;;0.40;0.28;;;;;;;-148.56;100.00;61375.16;5009092;28;20029;-32
2022/06/27 00:41:49;;;;;;;0.50;0.50;;;;;;;-148.56;100.00;61375.16;5008297;28;20693;-38
2022/06/27 00:44:44;;;;;;;0.80;0.50;;;;;;;-148.56;100.00;61375.16;5008956;28;20065;-31
2022/06/27 00:47:11;;;;;;;0.65;0.40;;;;;;;-148.56;100.00;61375.16;5001863;28;20079;-31
2022/06/27 00:49:36;;;;;;;0.20;0.20;;;;;;;-148.56;100.00;61375.16;5014196;28;20079;-41
2022/06/27 00:52:07;;;;;;;0.30;0.30;;;;;;;-148.56;100.00;61375.16;5008243;28;20865;-35
2022/06/27 00:54:33;;;;;;;0.30;0.20;;;;;;;-148.56;100.00;61375.16;5008168;28;20038;-38
2022/06/27 00:56:58;;;;;;;1.15;0.35;;;;;;;-148.56;100.00;61375.16;5008592;28;20034;-36
2022/06/27 00:59:24;;;;;;;0.30;0.30;;;;;;;-148.56;100.00;61375.16;5008658;28;20033;-34
2022/06/27 01:01:49;;;;;;;0.68;0.40;;;;;;;-148.56;100.00;61375.16;5011715;28;20103;-32
2022/06/27 01:04:15;;;;;;;0.30;0.30;;;;;;;-148.56;100.00;61375.16;5004701;28;20041;-38
2022/06/27 01:06:40;;;;;;;0.70;0.40;;;;;;;-148.56;100.00;61375.16;5006466;28;20113;-35
2022/06/27 01:09:06;;;;;;;0.25;0.25;;;;;;;-148.56;100.00;61375.16;5008004;28;20052;-38
2022/06/27 01:11:31;;;;;;;0.70;0.38;;;;;;;-148.56;100.00;61375.16;5007213;28;20026;-33
2022/06/27 01:13:56;;;;;;;0.25;0.20;;;;;;;-148.56;100.00;61375.16;5010933;28;20036;-38
2022/06/27 01:16:23;;;;;;;0.40;0.40;;;;;;;-148.56;100.00;61375.16;5010571;28;20045;-37
2022/06/27 01:18:48;;;;;;;0.30;0.20;;;;;;;-148.56;100.00;61375.16;5011163;28;20068;-32
2022/06/27 01:21:21;;;;;;;0.30;0.30;;;;;;;-148.56;100.00;61375.16;5009996;28;20038;-36
2022/06/27 01:23:47;;;;;;;0.50;0.38;;;;;;;-148.56;100.00;61375.16;5003478;28;20037;-35
2022/06/27 01:26:12;;;;;;;0.70;0.30;;;;;;;-148.56;100.00;61375.16;5010104;28;20030;-36
2022/06/27 01:28:38;;;;;;;0.65;0.20;;;;;;;-148.56;100.00;61375.16;5005560;28;22243;-34
2022/06/27 01:31:03;;;;;;;0.30;0.30;;;;;;;-148.56;100.00;61375.16;5005844;28;20033;-36
2022/06/27 01:33:28;;;;;;;0.52;0.30;;;;;;;-148.56;100.00;61375.16;4985656;28;20637;-34
2022/06/27 01:36:41;;;;;;;0.30;0.30;;;;;;;-148.56;100.00;61375.16;5009545;28;20029;-33
2022/06/27 01:38:39;;;;;;;0.30;0.30;;;;;;;-148.56;100.00;61375.16;5009566;28;20961;-39
2022/06/27 01:41:04;;;;;;;0.68;0.30;;;;;;;-148.56;100.00;61375.16;5009833;28;20052;-35
2022/06/27 01:43:30;;;;;;;0.30;0.30;;;;;;;-148.56;100.00;61375.16;5006797;28;20026;-35
2022/06/27 01:45:55;;;;;;;2.25;0.43;;;;;;;-148.56;100.00;61375.16;5010182;28;20029;-34
2022/06/27 01:48:21;;;;;;;0.30;0.30;;;;;;;-148.56;100.00;61375.16;5012914;28;20397;-31
2022/06/27 01:50:46;;;;;;;0.35;0.30;;;;;;;-148.56;100.00;61375.16;5008094;28;20065;-34
2022/06/27 01:53:12;;;;;;;0.32;0.30;;;;;;;-148.56;100.00;61375.16;5006408;28;20029;-36
2022/06/27 01:55:37;;;;;;;0.50;0.50;;;;;;;-148.56;100.00;61375.16;5009693;28;20123;-31
2022/06/27 01:58:02;;;;;;;0.30;0.28;;;;;;;-148.56;100.00;61375.16;5010267;28;20523;-37
2022/06/27 02:00:28;;;;;;;0.43;0.40;;;;;;;-148.56;100.00;61375.16;5007467;28;20044;-34
2022/06/27 02:02:53;;;;;;;0.30;0.30;;;;;;;-148.56;100.00;61375.16;5004829;28;20068;-36
2022/06/27 02:05:19;;;;;;;0.38;0.30;;;;;;;-148.56;100.00;61375.16;5005053;28;20068;-34
2022/06/27 02:07:44;;;;;;;0.47;0.40;;;;;;;-148.56;100.00;61375.16;5007951;28;20033;-36
2022/06/27 02:10:09;;;;;;;0.40;0.35;;;;;;;-148.56;100.00;61375.16;5005825;28;20036;-36
2022/06/27 02:12:35;;;;;;;0.25;0.25;;;;;;;-148.56;100.00;61375.16;5008496;28;20455;-37
2022/06/27 02:15:00;;;;;;;0.50;0.40;;;;;;;-148.56;100.00;61375.16;5008870;28;20289;-33
2022/06/27 02:17:25;;;;;;;0.30;0.30;;;;;;;-148.56;100.00;61375.16;5009714;28;20038;-36
2022/06/27 02:19:51;;;;;;;0.47;0.40;;;;;;;-148.56;100.00;61375.16;5010391;28;20058;-36
2022/06/27 02:22:16;;;;;;;0.30;0.30;;;;;;;-148.56;100.00;61375.16;5007532;28;20131;-34
2022/06/27 02:24:42;;;;;;;0.32;0.30;;;;;;;-148.56;100.00;61375.16;5008169;28;20749;-32
2022/06/27 02:27:08;;;;;;;0.30;0.30;;;;;;;-148.56;100.00;61375.16;5006166;28;20038;-37
2022/06/27 02:29:34;;;;;;;0.38;0.30;;;;;;;-148.56;100.00;61375.16;5010096;28;20052;-35
2022/06/27 02:31:59;;;;;;;0.30;0.30;;;;;;;-148.56;100.00;61375.16;5004984;28;20389;-34
2022/06/27 02:34:24;;;;;;;0.30;0.30;;;;;;;-148.56;100.00;61375.16;5004891;28;20025;-38
2022/06/27 02:36:50;;;;;;;0.22;0.22;;;;;;;-148.56;100.00;61375.16;5011721;28;20030;-34
2022/06/27 02:39:16;;;;;;;0.20;0.20;;;;;;;-148.56;100.00;61375.16;5005774;28;20041;-34
2022/06/27 02:41:42;;;;;;;0.20;0.20;;;;;;;-148.56;100.00;61375.16;5011120;28;20030;-39
2022/06/27 02:44:09;;;;;;;0.55;0.35;;;;;;;-148.56;100.00;61375.16;5010173;28;20763;-37
2022/06/27 02:46:35;;;;;;;0.45;0.40;;;;;;;-148.56;100.00;61375.16;5005020;28;20493;-37
2022/06/27 02:49:00;;;;;;;0.20;0.20;;;;;;;-148.56;100.00;61375.16;5010374;28;20021;-34
2022/06/27 02:51:28;;;;;;;0.30;0.30;;;;;;;-148.56;100.00;61375.16;5006891;28;20031;-33
2022/06/27 02:54:10;;;;;;;0.40;0.40;;;;;;;-148.56;100.00;61375.16;5007826;28;20033;-34
2022/06/27 02:56:42;;;;;;;0.30;0.30;;;;;;;-148.56;100.00;61375.16;5010106;28;20493;-33
2022/06/27 02:59:14;;;;;;;1.02;0.30;;;;;;;-148.56;100.00;61375.16;5010192;28;20055;-33
2022/06/27 03:01:41;;;;;;;0.32;0.32;;;;;;;-148.56;100.00;61375.16;5001035;28;20036;-32
2022/06/27 03:04:07;;;;;;;0.30;0.30;;;;;;;-148.56;100.00;61375.16;5006655;28;20021;-34
2022/06/27 03:06:32;;;;;;;0.35;0.20;;;;;;;-148.56;100.00;61375.16;5005209;28;20083;-36
2022/06/27 03:08:57;;;;;;;0.40;0.40;;;;;;;-148.56;100.00;61375.16;5008516;28;20400;-31
2022/06/27 03:11:23;;;;;;;0.30;0.30;;;;;;;-148.56;100.00;61375.16;5005443;28;20559;-40
2022/06/27 03:13:49;;;;;;;0.57;0.20;;;;;;;-148.56;100.00;61375.16;5008491;28;20040;-36
2022/06/27 03:16:14;;;;;;;0.30;0.30;;;;;;;-148.56;100.00;61375.16;5009383;28;20526;-31
2022/06/27 03:18:40;;;;;;;0.30;0.28;;;;;;;-148.56;100.00;61375.16;5009872;28;20562;-34
2022/06/27 03:21:06;;;;;;;0.40;0.40;;;;;;;-148.56;100.00;61375.16;5009683;28;20448;-33
2022/06/27 03:23:31;;;;;;;0.50;0.20;;;;;;;-148.56;100.00;61375.16;5005881;28;20546;-36
2022/06/27 03:25:56;;;;;;;0.28;0.28;;;;;;;-148.56;100.00;61375.16;5006118;28;20503;-35
2022/06/27 03:28:22;;;;;;;0.20;0.20;;;;;;;-148.56;100.00;61375.16;5007361;28;20104;-34
2022/06/27 03:30:47;;;;;;;0.38;0.25;;;;;;;-148.56;100.00;61375.16;5007009;28;20030;-34
2022/06/27 03:33:13;;;;;;;0.50;0.40;;;;;;;-148.56;100.00;61375.16;5003179;28;20037;-32
2022/06/27 03:35:38;;;;;;;0.47;0.30;;;;;;;-148.56;100.00;61375.16;5003678;28;20048;-35
2022/06/27 03:38:04;;;;;;;0.22;0.22;;;;;;;-148.56;100.00;61375.16;5009119;28;20654;-38
2022/06/27 03:40:29;;;;;;;0.20;0.20;;;;;;;-148.56;100.00;61375.16;5008787;28;20029;-32
2022/06/27 03:42:55;;;;;;;0.38;0.30;;;;;;;-148.56;100.00;61375.16;5002061;28;20056;-36
2022/06/27 03:45:20;;;;;;;0.50;0.30;;;;;;;-148.56;100.00;61375.16;4981983;28;20056;-37
2022/06/27 03:47:55;;;;;;;0.25;0.25;;;;;;;-148.56;100.00;61375.16;4991105;28;20394;-31
2022/06/27 03:50:21;;;;;;;0.20;0.20;;;;;;;-148.56;100.00;61375.16;4991015;28;20042;-35
2022/06/27 03:52:47;;;;;;;0.30;0.30;;;;;;;-148.56;100.00;61375.16;4990285;28;21574;-39
2022/06/27 03:55:13;;;;;;;0.20;0.20;;;;;;;-148.56;100.00;61375.16;4987895;28;20034;-38
2022/06/27 03:57:39;;;;;;;0.30;0.30;;;;;;;-148.56;100.00;61375.16;4989923;28;20040;-37
2022/06/27 04:00:05;;;;;;;0.63;0.30;;;;;;;-148.56;100.00;61375.16;4993850;28;20029;-37
2022/06/27 04:02:31;;;;;;;0.30;0.30;;;;;;;-148.56;100.00;61375.16;5003393;28;20119;-36
2022/06/27 04:04:56;;;;;;;0.65;0.40;;;;;;;-148.56;100.00;61375.16;5007850;28;20743;-37
2022/06/27 04:07:21;;;;;;;0.82;0.20;;;;;;;-148.56;100.00;61375.16;5005719;28;20045;-33
2022/06/27 04:09:47;;;;;;;0.47;0.20;;;;;;;-148.56;100.00;61375.16;5005297;28;20033;-36
2022/06/27 04:12:12;;;;;;;0.55;0.30;;;;;;;-148.56;100.00;61375.16;5005686;28;20111;-35
2022/06/27 04:14:38;;;;;;;0.77;0.40;;;;;;;-148.56;100.00;61375.16;5003235;28;20038;-31
2022/06/27 04:17:03;;;;;;;0.75;0.40;;;;;;;-148.56;100.00;61375.16;5008854;28;20041;-34
2022/06/27 04:19:29;;;;;;;0.30;0.30;;;;;;;-148.56;100.00;61375.16;5008029;28;20673;-35
2022/06/27 04:21:54;;;;;;;0.90;0.30;;;;;;;-148.56;100.00;61375.16;5003603;28;20915;-37
2022/06/27 04:24:20;;;;;;;0.75;0.30;;;;;;;-148.56;100.00;61375.16;5008461;28;20692;-36
2022/06/27 04:26:46;;;;;;;0.38;0.38;;;;;;;-148.56;100.00;61375.16;5009025;28;20106;-35
2022/06/27 04:29:11;;;;;;;0.30;0.30;;;;;;;-148.56;100.00;61375.16;5005272;28;20040;-35
2022/06/27 04:31:36;;;;;;;0.20;0.20;;;;;;;-148.56;100.00;61375.16;5002156;28;20848;-34
2022/06/27 04:34:02;;;;;;;0.30;0.30;;;;;;;-148.56;100.00;61375.16;5003520;28;20067;-34
2022/06/27 04:36:28;;;;;;;0.20;0.20;;;;;;;-148.56;100.00;61375.16;5002283;28;20033;-36
2022/06/27 04:38:53;;;;;;;0.30;0.30;;;;;;;-148.56;100.00;61375.16;5007637;28;20022;-35
2022/06/27 04:41:20;;;;;;;0.30;0.30;;;;;;;-148.56;100.00;61375.16;5004193;28;20634;-31
2022/06/27 04:43:45;;;;;;;0.73;0.40;;;;;;;-148.56;100.00;61375.16;5007575;28;20032;-36
2022/06/27 04:46:11;;;;;;;0.35;0.30;;;;;;;-148.56;100.00;61375.16;5006408;28;20036;-32
2022/06/27 04:48:37;;;;;;;0.40;0.30;;;;;;;-148.56;100.00;61375.16;5006131;28;20022;-37
2022/06/27 04:51:03;;;;;;;0.20;0.20;;;;;;;-148.56;100.00;61375.16;5006173;28;20103;-34
2022/06/27 04:53:30;;;;;;;0.22;0.22;;;;;;;-148.56;100.00;61375.16;5004810;28;20560;-34
2022/06/27 04:55:56;;;;;;;0.47;0.47;;;;;;;-148.56;100.00;61375.16;5005787;28;20034;-35
2022/06/27 04:58:22;;;;;;;0.20;0.20;;;;;;;-148.56;100.00;61375.16;5014971;28;20957;-36
2022/06/27 05:00:47;;;;;;;0.30;0.20;;;;;;;-148.56;100.00;61375.16;4979764;28;20071;-36
2022/06/27 05:03:13;;;;;;;0.52;0.35;;;;;;;-148.56;100.00;61375.16;4962097;28;20041;-35
2022/06/27 05:05:39;;;;;;;0.30;0.30;;;;;;;-148.56;100.00;61375.16;4970548;28;20034;-35
2022/06/27 05:08:05;;;;;;;0.68;0.30;;;;;;;-148.56;100.00;61375.16;4961096;28;20033;-33
2022/06/27 05:10:30;;;;;;;0.30;0.30;;;;;;;-148.56;100.00;61375.16;4957661;28;20072;-37
2022/06/27 05:12:56;;;;;;;0.30;0.30;;;;;;;-148.56;100.00;61375.16;4954754;28;20037;-34
2022/06/27 05:15:21;;;;;;;0.85;0.40;;;;;;;-148.56;100.00;61375.16;4967174;28;22282;-35
2022/06/27 05:17:47;;;;;;;0.30;0.30;;;;;;;-148.56;100.00;61375.16;4968752;28;21532;-37
2022/06/27 05:20:12;;;;;;;0.52;0.28;;;;;;;-148.56;100.00;61375.16;4963171;28;20049;-28
2022/06/27 05:22:38;;;;;;;0.98;0.52;;;;;;;-148.56;100.00;61375.16;4972560;28;20025;-30
2022/06/27 05:25:04;;;;;;;0.52;0.30;;;;;;;-148.56;100.00;61375.16;4970295;28;20032;-36
2022/06/27 05:27:29;;;;;;;0.40;0.30;;;;;;;-148.56;100.00;61375.16;4971978;28;20025;-37
2022/06/27 05:29:55;;;;;;;0.20;0.20;;;;;;;-148.56;100.00;61375.16;4971897;28;22134;-37
2022/06/27 05:32:20;;;;;;;0.13;0.13;;;;;;;-148.56;100.00;61375.16;4972262;28;20038;-38
2022/06/27 05:34:46;;;;;;;0.47;0.45;;;;;;;-148.56;100.00;61375.16;4963279;28;20048;-38
2022/06/27 05:37:12;;;;;;;0.20;0.20;;;;;;;-148.56;100.00;61375.16;4963291;28;20107;-37
2022/06/27 05:39:40;;;;;;;0.30;0.30;;;;;;;-148.56;100.00;61375.16;4967614;28;20071;-36
2022/06/27 05:42:05;;;;;;;0.20;0.20;;;;;;;-148.56;100.00;61375.16;4962052;28;20063;-33
2022/06/27 05:44:31;;;;;;;0.30;0.30;;;;;;;-148.56;100.00;61375.16;4970604;28;20134;-36
2022/06/27 05:46:56;;;;;;;0.38;0.28;;;;;;;-148.56;100.00;61375.16;4965493;28;20033;-32
2022/06/27 05:49:23;;;;;;;0.40;0.30;;;;;;;-148.56;100.00;61375.16;4966454;28;20029;-33
2022/06/27 05:51:50;;;;;;;0.40;0.40;;;;;;;-148.56;100.00;61375.16;4971735;28;21841;-35
2022/06/27 05:54:16;;;;;;;0.20;0.20;;;;;;;-148.56;100.00;61375.16;4965891;28;20044;-33
2022/06/27 05:56:41;;;;;;;0.30;0.30;;;;;;;-148.56;100.00;61375.16;4975878;28;20041;-35
2022/06/27 05:59:07;;;;;;;0.20;0.20;;;;;;;-148.56;100.00;61375.16;4976024;28;21076;-35
2022/06/27 06:01:36;;;;;;;0.20;0.20;;;;;;;-148.56;100.00;61375.16;5007148;28;20201;-35
2022/06/27 06:04:02;;;;;;;0.20;0.20;;;;;;;-148.56;100.00;61375.16;5009125;28;20041;-34
2022/06/27 06:06:28;;;;;;;0.68;0.32;;;;;;;-148.56;100.00;61375.16;5005811;28;20022;-31
2022/06/27 06:08:54;;;;;;;0.70;0.30;;;;;;;-148.56;100.00;61375.16;5011322;28;20025;-34
2022/06/27 06:11:19;;;;;;;0.20;0.20;;;;;;;-148.56;100.00;61375.16;5008848;28;20040;-31
2022/06/27 06:13:45;;;;;;;0.75;0.40;;;;;;;-148.56;100.00;61375.16;5004758;28;20115;-35
2022/06/27 06:16:11;;;;;;;0.40;0.30;;;;;;;-148.56;100.00;61375.16;5001887;28;20017;-33
2022/06/27 06:18:37;;;;;;;0.43;0.40;;;;;;;-148.56;100.00;61375.16;5009847;28;20032;-34
2022/06/27 06:21:03;;;;;;;0.30;0.30;;;;;;;-148.56;100.00;61375.16;5008704;28;20037;-34
2022/06/27 06:23:29;;;;;;;0.43;0.30;;;;;;;-148.56;100.00;61375.16;5005991;28;20029;-35
2022/06/27 06:25:54;;;;;;;0.20;0.20;;;;;;;-148.56;100.00;61375.16;5009078;28;20091;-37
2022/06/27 06:28:20;;;;;;;0.80;0.20;;;;;;;-148.56;100.00;61375.16;5009399;28;20564;-34
2022/06/27 06:30:46;;;;;;;0.30;0.30;;;;;;;-148.56;100.00;61375.16;5007768;28;20680;-38
2022/06/27 06:33:11;;;;;;;0.30;0.30;;;;;;;-148.56;100.00;61375.16;5003095;28;20084;-39
2022/06/27 06:35:36;;;;;;;0.30;0.30;;;;;;;-148.56;100.00;61375.16;5005947;28;20029;-36
2022/06/27 06:38:02;;;;;;;0.20;0.20;;;;;;;-148.56;100.00;61375.16;5004519;28;20396;-37
2022/06/27 06:40:28;;;;;;;0.40;0.35;;;;;;;-148.56;100.00;61375.16;5008501;28;20064;-37
2022/06/27 06:42:54;;;;;;;0.50;0.30;;;;;;;-148.56;100.00;61375.16;5007621;28;20036;-34
2022/06/27 06:45:20;;;;;;;0.93;0.40;;;;;;;-148.56;100.00;61375.16;5007771;28;20028;-39
2022/06/27 06:47:46;;;;;;;0.43;0.22;;;;;;;-148.56;100.00;61375.16;5010418;28;20041;-34
2022/06/27 06:50:18;;;;;;;0.28;0.28;;;;;;;-148.56;100.00;61375.16;5008395;28;20423;-32
2022/06/27 06:52:44;;;;;;;;;;;;;;;-148.56;100.00;61375.16;5008830;28;20036;-35
2022/06/27 06:55:09;;;;;;;0.30;0.30;;;;;;;-148.56;100.00;61375.16;5005189;28;20781;-34
2022/06/27 06:57:37;;;;;;;0.40;0.30;;;;;;;-148.56;100.00;61375.16;5007202;28;20038;-39
2022/06/27 07:00:03;;;;;;;0.40;0.40;;;;;;;-148.56;100.00;61375.16;5007308;28;20030;-37
2022/06/27 07:02:29;;;;;;;0.30;0.30;;;;;;;-148.56;100.00;61375.16;5004572;28;20190;-33
2022/06/27 07:04:56;;;;;;;0.75;0.40;;;;;;;-148.56;100.00;61375.16;5007803;28;20125;-37
2022/06/27 07:07:25;;;;;;;0.30;0.30;;;;;;;-148.56;100.00;61375.16;5006415;28;20478;-34
2022/06/27 07:09:51;;;;;;;0.90;0.45;;;;;;;-148.56;100.00;61375.16;5007697;28;20091;-36
2022/06/27 07:12:17;;;;;;;0.30;0.22;;;;;;;-148.56;100.00;61375.16;5006469;28;20037;-37
2022/06/27 07:14:42;;;;;;;0.30;0.30;;;;;;;-148.56;100.00;61375.16;5000576;28;20033;-32
2022/06/27 07:17:08;;;;;;;0.20;0.20;;;;;;;-148.56;100.00;61375.16;5006206;28;20037;-34
2022/06/27 07:19:33;;;;;;;0.20;0.20;;;;;;;-148.56;100.00;61375.16;5007702;28;20029;-35
2022/06/27 07:21:59;;;;;;;0.70;0.40;;;;;;;-148.56;100.00;61375.16;5007728;28;20052;-33
2022/06/27 07:24:25;;;;;;;0.32;0.20;;;;;;;-148.56;100.00;61375.16;5005402;28;20061;-38
2022/06/27 07:26:51;;;;;;;0.55;0.30;;;;;;;-148.56;100.00;61375.16;5010482;28;20026;-35
2022/06/27 07:29:16;;;;;;;0.20;0.20;;;;;;;-148.56;100.00;61375.16;5005534;28;20033;-38
2022/06/27 07:31:42;;;;;;;0.20;0.20;;;;;;;-148.56;100.00;61375.16;5004606;28;20025;-34
2022/06/27 07:34:08;;;;;;;0.30;0.30;;;;;;;-148.56;100.00;61375.16;5002984;28;21166;-33
2022/06/27 07:36:35;;;;;;;0.25;0.25;;;;;;;-148.56;100.00;61375.16;5006935;28;20037;-33
2022/06/27 07:39:01;;;;;;;0.43;0.28;;;;;;;-148.56;100.00;61375.16;5011016;28;20029;-36
2022/06/27 07:41:30;;;;;;;0.70;0.47;;;;;;;-148.56;100.00;61375.16;5003143;28;20022;-37
2022/06/27 07:43:55;;;;;;;0.45;0.20;;;;;;;-148.56;100.00;61375.16;5004938;28;20507;-33
2022/06/27 07:46:21;;;;;;;0.30;0.30;;;;;;;-148.56;100.00;61375.16;5006320;28;20052;-37
2022/06/27 07:48:47;;;;;;;0.50;0.30;;;;;;;-148.56;100.00;61375.16;5008693;28;20025;-37
2022/06/27 07:51:16;;;;;;;0.30;0.30;;;;;;;-148.56;100.00;61375.16;5004428;28;20449;-35
2022/06/27 07:53:43;;;;;;;0.10;0.10;;;;;;;-148.56;100.00;61375.16;5011861;28;20687;-38
2022/06/27 07:56:10;;;;;;;0.65;0.40;;;;;;;-148.56;100.00;61375.16;5007715;28;20029;-33
2022/06/27 07:58:38;;;;;;;0.55;0.20;;;;;;;-148.56;100.00;61375.16;5008756;28;20080;-35
2022/06/27 08:01:06;;;;;;;0.35;0.30;;;;;;;-148.56;100.00;61375.16;5004700;28;20339;-36
2022/06/27 08:03:40;;;;;;;0.20;0.20;;;;;;;-148.56;100.00;61375.16;5001023;28;20033;-32
2022/06/27 08:06:10;;;;;;;0.13;0.13;;;;;;;-148.56;100.00;61375.16;5006532;28;20033;-37
2022/06/27 08:08:39;;;;;;;0.93;0.30;;;;;;;-148.56;100.00;61375.16;5008386;28;20040;-36
2022/06/27 08:11:06;;;;;;;0.20;0.20;;;;;;;-148.56;100.00;61375.16;5006529;28;20040;-38
2022/06/27 08:13:32;;;;;;;0.20;0.20;;;;;;;-148.56;100.00;61375.16;5005809;28;20401;-36
2022/06/27 08:15:58;;;;;;;0.63;0.20;;;;;;;-148.56;100.00;61375.16;4997858;28;20034;-35
2022/06/27 08:18:24;;;;;;;0.20;0.20;;;;;;;-148.56;100.00;61375.16;5007530;28;20032;-34
2022/06/27 08:20:49;;;;;;;0.20;0.20;;;;;;;-148.56;100.00;61375.16;5008567;28;20021;-38
2022/06/27 08:23:15;;;;;;;0.10;0.10;;;;;;;-148.56;100.00;61375.16;5005308;28;20100;-30
2022/06/27 08:25:41;;;;;;;0.30;0.30;;;;;;;-148.56;100.00;61375.16;5006812;28;20069;-35
2022/06/27 08:28:10;;;;;;;0.65;0.20;;;;;;;-148.56;100.00;61375.16;5006965;28;20040;-33
2022/06/27 08:30:37;;;;;;;0.13;0.13;;;;;;;-148.56;100.00;61375.16;5006880;28;20057;-37
2022/06/27 08:33:02;;;;;;;0.20;0.20;;;;;;;-148.56;100.00;61375.16;5002672;28;20029;-36
2022/06/27 08:35:28;;;;;;;0.22;0.20;;;;;;;-148.56;100.00;61375.16;5006549;28;20045;-30
2022/06/27 08:37:54;;;;;;;0.17;0.17;;;;;;;-148.56;100.00;61375.16;5005630;28;20040;-32
2022/06/27 08:40:20;;;;;;;0.50;0.30;;;;;;;-148.56;100.00;61375.16;5003376;28;20061;-36
2022/06/27 08:42:45;;;;;;;0.25;0.20;;;;;;;-148.56;100.00;61375.16;5006278;28;20102;-34
2022/06/27 08:45:13;;;;;;;0.30;0.30;;;;;;;-148.56;100.00;61375.16;5004438;28;20041;-35
2022/06/27 08:47:40;;;;;;;0.35;0.20;;;;;;;-148.56;100.00;61375.16;4995403;28;20785;-31
2022/06/27 08:50:07;;;;;;;0.43;0.20;;;;;;;-148.56;100.00;61375.16;5006006;28;20049;-33
2022/06/27 08:52:34;;;;;;;0.32;0.20;;;;;;;-148.56;100.00;61375.16;5004223;28;20040;-36
2022/06/27 08:55:01;;;;;;;0.32;0.30;;;;;;;-148.56;100.00;61375.16;5002599;28;20026;-38
2022/06/27 08:57:26;;;;;;;0.20;0.20;;;;;;;-148.56;100.00;61375.16;5004549;28;20128;-33
2022/06/27 08:59:53;;;;;;;0.20;0.20;;;;;;;-148.56;100.00;61375.16;5005334;28;20769;-36
2022/06/27 09:02:23;;;;;;;0.30;0.30;;;;;;;-148.56;100.00;61375.16;5003366;28;20091;-36
2022/06/27 09:05:02;;;;;;;0.17;0.17;;;;;;;-148.56;100.00;61375.16;5008081;28;20072;-33
2022/06/27 09:07:53;;;;;;;0.30;0.20;;;;;;;-148.56;100.00;61375.16;5007799;28;20116;-37
2022/06/27 09:10:29;;;;;;;0.22;0.22;;;;;;;-148.56;100.00;61375.16;5010901;28;20029;-32
2022/06/27 09:12:57;;;;;;;0.30;0.20;;;;;;;-148.56;100.00;61375.16;5011164;28;20481;-35
2022/06/27 09:15:44;;;;;;;1.08;0.30;;;;;;;-148.56;100.00;61375.16;5003953;28;20542;-34
2022/06/27 09:18:10;;;;;;;0.25;0.25;;;;;;;-148.56;100.00;61375.16;5007587;28;20057;-36
2022/06/27 09:20:49;;;;;;;0.30;0.30;;;;;;;-148.56;100.00;61375.16;5009487;28;20957;-37
2022/06/27 09:23:44;;;;;;;0.52;0.32;;;;;;;-148.56;100.00;61375.16;5007631;28;20128;-34
2022/06/27 09:26:19;;;;;;;0.20;0.20;;;;;;;-148.56;100.00;61375.16;5011368;28;20106;-33
2022/06/27 09:29:04;;;;;;;0.20;0.20;;;;;;;-148.56;100.00;61375.16;5010877;28;20025;-33
2022/06/27 09:31:35;;;;;;;0.32;0.30;;;;;;;-148.56;100.00;61375.16;5010608;28;20041;-35
2022/06/27 09:34:12;;;;;;;0.45;0.35;;;;;;;-148.56;100.00;61375.16;5012889;28;20474;-33
2022/06/27 09:36:54;;;;;;;0.30;0.30;;;;;;;-148.56;100.00;61375.16;5011909;28;20025;-36
2022/06/27 09:39:24;;;;;;;0.20;0.20;;;;;;;-148.56;100.00;61375.16;5007992;28;20168;-36
2022/06/27 09:41:59;;;;;;;0.40;0.25;;;;;;;-148.56;100.00;61375.16;5004643;28;20789;-34
2022/06/27 09:44:26;;;;;;;0.28;0.28;;;;;;;-148.56;100.00;61375.16;5004008;28;20160;-38
2022/06/27 09:47:16;;;;;;;0.30;0.30;;;;;;;-148.56;100.00;61375.16;5008090;28;20109;-35
2022/06/27 09:49:43;;;;;;;0.25;0.20;;;;;;;-148.56;100.00;61375.16;5006743;28;20120;-39
2022/06/27 09:52:10;;;;;;;0.30;0.30;;;;;;;-148.56;100.00;61375.16;5007902;28;20160;-33
2022/06/27 09:54:36;;;;;;;0.20;0.20;;;;;;;-148.56;100.00;61375.16;5008538;28;20600;-35
2022/06/27 09:57:02;;;;;;;0.28;0.22;;;;;;;-148.56;100.00;61375.16;5006442;28;20120;-36
2022/06/27 09:59:27;;;;;;;1.20;0.10;;;;;;;-148.56;100.00;61375.16;5010092;28;20099;-38
2022/06/27 10:01:56;;;;;;;0.63;0.20;;;;;;;-148.56;100.00;61375.16;5004776;28;20025;-33
2022/06/27 10:04:24;;;;;;;0.20;0.20;;;;;;;-148.56;100.00;61375.16;5005445;28;20033;-37
2022/06/27 10:06:50;;;;;;;0.20;0.20;;;;;;;-148.56;100.00;61375.16;5007779;28;20064;-36
2022/06/27 10:09:16;;;;;;;0.30;0.20;;;;;;;-148.56;100.00;61375.16;5005982;28;20139;-32
2022/06/27 10:11:41;;;;;;;0.15;0.15;;;;;;;-148.56;100.00;61375.16;4995099;28;20807;-35
2022/06/27 10:14:10;;;;;;;0.22;0.22;;;;;;;-148.56;100.00;61375.16;5004588;28;20049;-30
2022/06/27 10:16:51;;;;;;;0.15;0.15;;;;;;;-148.56;100.00;61375.16;5013641;28;20123;-36
2022/06/27 10:19:17;;;;;;;0.73;0.23;;;;;;;-148.56;100.00;61375.16;5006120;28;20130;-35
2022/06/27 10:21:45;;;;;;;0.10;0.10;;;;;;;-148.56;100.00;61375.16;5005779;28;20287;-34
2022/06/27 10:24:16;;;;;;;0.28;0.28;;;;;;;-148.56;100.00;61375.16;5005559;28;20779;-32
2022/06/27 10:26:41;;;;;;;;;;;;;;;-148.56;100.00;61375.16;5003366;28;20112;-31
2022/06/27 10:29:37;;;;;;;0.28;0.20;;;;;;;-148.56;100.00;61375.16;5008463;28;19927;-36
2022/06/27 10:32:04;;;;;;;0.22;0.20;;;;;;;-148.56;100.00;61375.16;5009910;28;20045;-38
2022/06/27 10:34:39;;;;;;;0.20;0.20;;;;;;;-148.56;100.00;61375.16;5006954;28;20053;-29
2022/06/27 10:37:25;;;;;;;0.20;0.20;;;;;;;-148.56;100.00;61375.16;5007390;28;20076;-36
2022/06/27 10:39:52;;;;;;;0.20;0.15;;;;;;;-148.56;100.00;61375.16;5007559;28;20034;-36
2022/06/27 10:42:49;;;;;;;0.28;0.28;;;;;;;-148.56;100.00;61375.16;5002639;28;20103;-36
2022/06/27 10:45:20;;;;;;;0.73;0.32;;;;;;;-148.56;100.00;61375.16;5007470;28;20662;-36
2022/06/27 10:47:46;;;;;;;0.20;0.20;;;;;;;-148.56;100.00;61375.16;5009773;28;20033;-34
2022/06/27 10:50:18;;;;;;;4.90;0.38;;;;;;;-148.56;100.00;61375.16;5010684;28;20087;-32
2022/06/27 10:52:44;;;;;;;0.20;0.20;;;;;;;-148.56;100.00;61375.16;5006230;28;20029;-35
2022/06/27 10:55:29;;;;;;;0.20;0.20;;;;;;;-148.56;100.00;61375.16;5006226;28;20036;-36
2022/06/27 10:57:55;;;;;;;0.30;0.30;;;;;;;-148.56;100.00;61375.16;5008870;28;20025;-36
2022/06/27 11:00:37;;;;;;;0.10;0.10;;;;;;;-148.56;100.00;61375.16;5006480;28;20036;-32
2022/06/27 11:03:02;;;;;;;0.35;0.30;;;;;;;-148.56;100.00;61375.16;5001525;28;20522;-33
2022/06/27 11:05:29;;;;;;;0.10;0.10;;;;;;;-148.56;100.00;61375.16;5006797;28;20029;-33
2022/06/27 11:07:54;;;;;;;0.52;0.25;;;;;;;-148.56;100.00;61375.16;5008654;28;20040;-33
2022/06/27 11:10:20;;;;;;;0.28;0.28;;;;;;;-148.56;100.00;61375.16;5007983;28;20053;-36